<?xml version="1.0" encoding="UTF-8" standalone="no" ?>
<gpx version="1.1" creator="Visorando" xmlns:xsi="http://www.w3.org/2001/XMLSchema-instance" xmlns="http://www.topografix.com/GPX/1/1" xsi:schemaLocation="http://www.topografix.com/GPX/1/1 http://www.topografix.com/GPX/1/1/gpx.xsd">
<metadata><name>Randonnée du 26/07/2021 à 17:32</name><link href=""><text></text></link></metadata><trk><name>Randonnée du 26/07/2021 à 17:32</name><trkseg><trkpt lat="14.806406" lon="-61.15137"><ele>825</ele><time>2021-07-26T17:32:51+02:00</time></trkpt><trkpt lat="14.806444" lon="-61.151135"><ele>818</ele><time>2021-07-26T17:34:54+02:00</time></trkpt><trkpt lat="14.806668" lon="-61.151099"><ele>810</ele><time>2021-07-26T17:37:17+02:00</time></trkpt><trkpt lat="14.806831" lon="-61.15126"><ele>810</ele><time>2021-07-26T17:41:00+02:00</time></trkpt><trkpt lat="14.806886" lon="-61.151489"><ele>804</ele><time>2021-07-26T17:42:29+02:00</time></trkpt><trkpt lat="14.807036" lon="-61.151663"><ele>797</ele><time>2021-07-26T17:44:01+02:00</time></trkpt><trkpt lat="14.80718" lon="-61.151843"><ele>798</ele><time>2021-07-26T17:45:00+02:00</time></trkpt><trkpt lat="14.807383" lon="-61.151949"><ele>799</ele><time>2021-07-26T17:46:59+02:00</time></trkpt><trkpt lat="14.807535" lon="-61.152122"><ele>801</ele><time>2021-07-26T17:48:07+02:00</time></trkpt><trkpt lat="14.807731" lon="-61.15224"><ele>802</ele><time>2021-07-26T17:49:26+02:00</time></trkpt><trkpt lat="14.807769" lon="-61.152471"><ele>808</ele><time>2021-07-26T17:50:53+02:00</time></trkpt><trkpt lat="14.807921" lon="-61.152278"><ele>796</ele><time>2021-07-26T17:56:49+02:00</time></trkpt><trkpt lat="14.808061" lon="-61.152082"><ele>788</ele><time>2021-07-26T17:57:17+02:00</time></trkpt><trkpt lat="14.807847" lon="-61.152217"><ele>792</ele><time>2021-07-26T17:57:25+02:00</time></trkpt><trkpt lat="14.808075" lon="-61.152194"><ele>798</ele><time>2021-07-26T17:59:49+02:00</time></trkpt><trkpt lat="14.807945" lon="-61.152026"><ele>795</ele><time>2021-07-26T18:00:05+02:00</time></trkpt><trkpt lat="14.808149" lon="-61.151858"><ele>779</ele><time>2021-07-26T18:00:15+02:00</time></trkpt><trkpt lat="14.807968" lon="-61.152063"><ele>786</ele><time>2021-07-26T18:00:17+02:00</time></trkpt><trkpt lat="14.808078" lon="-61.151851"><ele>773</ele><time>2021-07-26T18:01:43+02:00</time></trkpt><trkpt lat="14.808144" lon="-61.151618"><ele>768</ele><time>2021-07-26T18:04:53+02:00</time></trkpt><trkpt lat="14.808155" lon="-61.151383"><ele>757</ele><time>2021-07-26T18:07:33+02:00</time></trkpt><trkpt lat="14.808323" lon="-61.151221"><ele>747</ele><time>2021-07-26T18:09:23+02:00</time></trkpt><trkpt lat="14.808343" lon="-61.150989"><ele>741</ele><time>2021-07-26T18:11:14+02:00</time></trkpt><trkpt lat="14.808503" lon="-61.150811"><ele>741</ele><time>2021-07-26T18:12:54+02:00</time></trkpt><trkpt lat="14.808611" lon="-61.150602"><ele>729</ele><time>2021-07-26T18:14:25+02:00</time></trkpt><trkpt lat="14.808622" lon="-61.150366"><ele>714</ele><time>2021-07-26T18:15:58+02:00</time></trkpt><trkpt lat="14.808616" lon="-61.150132"><ele>709</ele><time>2021-07-26T18:17:24+02:00</time></trkpt><trkpt lat="14.808703" lon="-61.149916"><ele>704</ele><time>2021-07-26T18:18:58+02:00</time></trkpt><trkpt lat="14.8087" lon="-61.14968"><ele>704</ele><time>2021-07-26T18:21:17+02:00</time></trkpt><trkpt lat="14.808864" lon="-61.149511"><ele>699</ele><time>2021-07-26T18:22:29+02:00</time></trkpt><trkpt lat="14.808958" lon="-61.149276"><ele>703</ele><time>2021-07-26T18:24:42+02:00</time></trkpt><trkpt lat="14.808843" lon="-61.149072"><ele>702</ele><time>2021-07-26T18:29:02+02:00</time></trkpt><trkpt lat="14.808716" lon="-61.148866"><ele>690</ele><time>2021-07-26T18:30:51+02:00</time></trkpt><trkpt lat="14.808706" lon="-61.148634"><ele>692</ele><time>2021-07-26T18:32:22+02:00</time></trkpt><trkpt lat="14.808728" lon="-61.148401"><ele>680</ele><time>2021-07-26T18:33:53+02:00</time></trkpt><trkpt lat="14.808951" lon="-61.148338"><ele>692</ele><time>2021-07-26T18:34:59+02:00</time></trkpt><trkpt lat="14.809154" lon="-61.148231"><ele>684</ele><time>2021-07-26T18:37:09+02:00</time></trkpt><trkpt lat="14.80938" lon="-61.148214"><ele>688</ele><time>2021-07-26T18:40:26+02:00</time></trkpt><trkpt lat="14.809589" lon="-61.148325"><ele>702</ele><time>2021-07-26T18:41:43+02:00</time></trkpt><trkpt lat="14.809602" lon="-61.148556"><ele>709</ele><time>2021-07-26T18:43:13+02:00</time></trkpt></trkseg></trk></gpx>